This is the latest recevied weather packets stored in our database for station/object W5CRT. If no packets are shown the sender has not sent any weather packets the latest 10 day(s).
| Time | Temp. | Humidity | Pressure | Rain* | Wind** | Luminosity | Snow |
|---|---|---|---|---|---|---|---|
| 1777669550 | 18.33° C | 57% | 1013.5 hPa | 0 mm | - | 416 W/m² | - |
| 1777669247 | 17.78° C | 57% | 1013.6 hPa | 0 mm | - | 331 W/m² | - |
| 1777668944 | 17.78° C | 55% | 1013.9 hPa | 0 mm | - | 234 W/m² | - |
| 1777668642 | 17.78° C | 58% | 1013.8 hPa | 0 mm | - | 348 W/m² | - |
| 1777668338 | 17.22° C | 56% | 1013.5 hPa | 0 mm | - | 245 W/m² | - |
| 1777668034 | 17.22° C | 56% | 1013.7 hPa | 0 mm | - | 235 W/m² | - |
| 1777667731 | 17.22° C | 56% | 1014.2 hPa | 0 mm | - | 198 W/m² | - |
| 1777667429 | 17.78° C | 58% | 1014.6 hPa | 0 mm | - | 190 W/m² | - |
| 1777667126 | 17.78° C | 55% | 1014.4 hPa | 0 mm | - | 191 W/m² | - |
| 1777666822 | 17.78° C | 57% | 1014.3 hPa | 0 mm | - | 302 W/m² | - |
| 1777666519 | 17.78° C | 56% | 1014.4 hPa | 0 mm | - | 248 W/m² | - |
| 1777666215 | 17.78° C | 56% | 1014 hPa | 0 mm | - | 302 W/m² | - |
| 1777665913 | 17.78° C | 56% | 1014.1 hPa | 0 mm | - | 324 W/m² | - |
| 1777665610 | 17.78° C | 57% | 1013.7 hPa | 0 mm | - | 400 W/m² | - |
| 1777665307 | 17.78° C | 58% | 1013.6 hPa | 0 mm | - | 368 W/m² | - |
| 1777665002 | 17.22° C | 56% | 1013.3 hPa | 0 mm | - | 262 W/m² | - |
| 1777664698 | 17.78° C | 53% | 1013.9 hPa | 0 mm | - | 251 W/m² | - |
| 1777664394 | 18.33° C | 55% | 1013.5 hPa | 0 mm | - | 353 W/m² | - |
| 1777664093 | 18.33° C | 56% | 1013.8 hPa | 0 mm | - | 454 W/m² | - |
| 1777663790 | 17.78° C | 56% | 1013.6 hPa | 0 mm | - | 430 W/m² | - |
| 1777663487 | 17.78° C | 56% | 1013.1 hPa | 0 mm | - | 343 W/m² | - |
| 1777663184 | 17.78° C | 57% | 1013.3 hPa | 0 mm | - | 263 W/m² | - |
| 1777662881 | 17.78° C | 53% | 1013.8 hPa | 0 mm | - | 244 W/m² | - |
| 1777662579 | 17.78° C | 54% | 1013.5 hPa | 0 mm | - | 287 W/m² | - |
| 1777662275 | 17.78° C | 52% | 1013.4 hPa | 0 mm | - | 333 W/m² | - |
* Rain latest hour (hover to see other rain measurements)
** Current wind speed in m/s (hover to see current wind gust speed)